sensor_id;sensor_type;location;lat;lon;timestamp;pressure;altitude;pressure_sealevel;temperature;humidity
9893;BME280;4985;49.092;8.542;2022-09-13T00:01:50;98884.69;;;23.28;47.86
9893;BME280;4985;49.092;8.542;2022-09-13T00:04:16;98884.69;;;23.28;47.84
9893;BME280;4985;49.092;8.542;2022-09-13T00:06:43;98890.06;;;23.28;47.86
9893;BME280;4985;49.092;8.542;2022-09-13T00:09:09;98886.81;;;23.26;47.85
9893;BME280;4985;49.092;8.542;2022-09-13T00:11:36;98893.00;;;23.26;47.85
9893;BME280;4985;49.092;8.542;2022-09-13T00:14:04;98892.19;;;23.26;47.88
9893;BME280;4985;49.092;8.542;2022-09-13T00:16:30;98890.56;;;23.24;47.90
9893;BME280;4985;49.092;8.542;2022-09-13T00:18:58;98886.81;;;23.26;47.84
9893;BME280;4985;49.092;8.542;2022-09-13T00:21:25;98885.75;;;23.27;47.83
9893;BME280;4985;49.092;8.542;2022-09-13T00:23:53;98879.31;;;23.28;47.77
9893;BME280;4985;49.092;8.542;2022-09-13T00:26:22;98879.31;;;23.28;47.80
9893;BME280;4985;49.092;8.542;2022-09-13T00:28:49;98878.50;;;23.27;47.78
9893;BME280;4985;49.092;8.542;2022-09-13T00:31:19;98865.34;;;23.26;47.77
9893;BME280;4985;49.092;8.542;2022-09-13T00:33:46;98843.84;;;23.26;47.80
9893;BME280;4985;49.092;8.542;2022-09-13T00:36:12;98843.03;;;23.25;47.75
9893;BME280;4985;49.092;8.542;2022-09-13T00:38:41;98842.25;;;23.24;47.72
9893;BME280;4985;49.092;8.542;2022-09-13T00:41:11;98847.59;;;23.24;47.74
9893;BME280;4985;49.092;8.542;2022-09-13T00:43:44;98846.00;;;23.23;47.73
9893;BME280;4985;49.092;8.542;2022-09-13T00:46:19;98842.25;;;23.24;47.73
9893;BME280;4985;49.092;8.542;2022-09-13T00:48:48;98839.00;;;23.22;47.76
9893;BME280;4985;49.092;8.542;2022-09-13T00:51:16;98848.69;;;23.23;47.75
9893;BME280;4985;49.092;8.542;2022-09-13T00:53:46;98849.75;;;23.22;47.78
9893;BME280;4985;49.092;8.542;2022-09-13T00:56:20;98851.38;;;23.23;47.68
9893;BME280;4985;49.092;8.542;2022-09-13T00:58:51;98852.66;;;23.21;47.79
9893;BME280;4985;49.092;8.542;2022-09-13T01:01:25;98860.47;;;23.22;47.75
9893;BME280;4985;49.092;8.542;2022-09-13T01:03:54;98861.53;;;23.21;47.76
9893;BME280;4985;49.092;8.542;2022-09-13T01:06:23;98863.72;;;23.24;47.68
9893;BME280;4985;49.092;8.542;2022-09-13T01:08:54;98865.84;;;23.22;47.74
9893;BME280;4985;49.092;8.542;2022-09-13T01:11:26;98854.53;;;23.20;47.78
9893;BME280;4985;49.092;8.542;2022-09-13T01:13:56;98854.53;;;23.20;47.75
9893;BME280;4985;49.092;8.542;2022-09-13T01:16:25;98855.34;;;23.21;47.72
9893;BME280;4985;49.092;8.542;2022-09-13T01:18:51;98841.09;;;23.20;47.70
9893;BME280;4985;49.092;8.542;2022-09-13T01:21:46;98851.84;;;23.20;47.71
9893;BME280;4985;49.092;8.542;2022-09-13T01:24:36;98862.59;;;23.20;47.68
9893;BME280;4985;49.092;8.542;2022-09-13T01:27:36;98857.22;;;23.20;47.70
9893;BME280;4985;49.092;8.542;2022-09-13T01:30:11;98859.34;;;23.18;47.71
9893;BME280;4985;49.092;8.542;2022-09-13T01:32:56;98856.41;;;23.20;47.71
9893;BME280;4985;49.092;8.542;2022-09-13T01:35:34;98860.72;;;23.21;47.64
9893;BME280;4985;49.092;8.542;2022-09-13T01:38:06;98861.78;;;23.20;47.67
9893;BME280;4985;49.092;8.542;2022-09-13T01:40:47;98858.28;;;23.19;47.63
9893;BME280;4985;49.092;8.542;2022-09-13T01:43:25;98857.22;;;23.20;47.61
9893;BME280;4985;49.092;8.542;2022-09-13T01:46:03;98859.63;;;23.17;47.71
9893;BME280;4985;49.092;8.542;2022-09-13T01:48:36;98867.13;;;23.15;47.73
9893;BME280;4985;49.092;8.542;2022-09-13T01:51:16;98865.78;;;23.17;47.68
9893;BME280;4985;49.092;8.542;2022-09-13T01:53:51;98869.28;;;23.18;47.65
9893;BME280;4985;49.092;8.542;2022-09-13T01:56:25;98868.47;;;23.17;47.62
9893;BME280;4985;49.092;8.542;2022-09-13T01:58:57;98871.94;;;23.13;47.71
9893;BME280;4985;49.092;8.542;2022-09-13T02:01:29;98870.06;;;23.13;47.73
9893;BME280;4985;49.092;8.542;2022-09-13T02:04:00;98882.97;;;23.16;47.67
9893;BME280;4985;49.092;8.542;2022-09-13T02:06:32;98889.41;;;23.15;47.67
9893;BME280;4985;49.092;8.542;2022-09-13T02:09:02;98880.53;;;23.15;47.63
9893;BME280;4985;49.092;8.542;2022-09-13T02:11:31;98874.38;;;23.14;47.66
9893;BME280;4985;49.092;8.542;2022-09-13T02:14:02;98883.22;;;23.15;47.63
9893;BME280;4985;49.092;8.542;2022-09-13T02:16:35;98872.22;;;23.16;47.57
9893;BME280;4985;49.092;8.542;2022-09-13T02:19:09;98880.03;;;23.18;47.53
9893;BME280;4985;49.092;8.542;2022-09-13T02:21:40;98871.69;;;23.14;47.56
9893;BME280;4985;49.092;8.542;2022-09-13T02:24:12;98881.34;;;23.15;47.58
9893;BME280;4985;49.092;8.542;2022-09-13T02:26:41;98885.91;;;23.15;47.56
9893;BME280;4985;49.092;8.542;2022-09-13T02:29:14;98884.03;;;23.15;47.50
9893;BME280;4985;49.092;8.542;2022-09-13T02:31:48;98890.47;;;23.14;47.52
9893;BME280;4985;49.092;8.542;2022-09-13T02:34:19;98885.09;;;23.14;47.52
9893;BME280;4985;49.092;8.542;2022-09-13T02:36:48;98887.25;;;23.12;47.57
9893;BME280;4985;49.092;8.542;2022-09-13T02:39:18;98885.09;;;23.14;47.53
9893;BME280;4985;49.092;8.542;2022-09-13T02:41:51;98876.50;;;23.12;47.48
9893;BME280;4985;49.092;8.542;2022-09-13T02:44:25;98868.19;;;23.14;47.47
9893;BME280;4985;49.092;8.542;2022-09-13T02:47:10;98860.88;;;23.09;47.54
9893;BME280;4985;49.092;8.542;2022-09-13T02:49:48;98864.94;;;23.12;47.52
9893;BME280;4985;49.092;8.542;2022-09-13T02:52:28;98860.41;;;23.12;47.50
9893;BME280;4985;49.092;8.542;2022-09-13T02:55:05;98857.72;;;23.12;47.48
9893;BME280;4985;49.092;8.542;2022-09-13T02:57:37;98848.84;;;23.12;47.49
9893;BME280;4985;49.092;8.542;2022-09-13T03:00:06;98845.09;;;23.13;47.46
9893;BME280;4985;49.092;8.542;2022-09-13T03:02:36;98849.66;;;23.12;47.43
9893;BME280;4985;49.092;8.542;2022-09-13T03:05:05;98853.09;;;23.08;47.45
9893;BME280;4985;49.092;8.542;2022-09-13T03:07:31;98849.91;;;23.11;47.46
9893;BME280;4985;49.092;8.542;2022-09-13T03:10:01;98854.22;;;23.12;47.38
9893;BME280;4985;49.092;8.542;2022-09-13T03:15:38;98882.13;;;23.11;47.40
9893;BME280;4985;49.092;8.542;2022-09-13T03:18:18;98886.09;;;23.08;47.41
9893;BME280;4985;49.092;8.542;2022-09-13T03:20:57;98886.66;;;23.10;47.38
9893;BME280;4985;49.092;8.542;2022-09-13T03:23:35;98879.66;;;23.09;47.38
9893;BME280;4985;49.092;8.542;2022-09-13T03:26:13;98861.69;;;23.10;47.34
9893;BME280;4985;49.092;8.542;2022-09-13T03:28:52;98862.50;;;23.10;47.26
9893;BME280;4985;49.092;8.542;2022-09-13T03:31:25;98858.78;;;23.11;47.16
9893;BME280;4985;49.092;8.542;2022-09-13T03:33:58;98853.16;;;23.13;47.08
9893;BME280;4985;49.092;8.542;2022-09-13T03:36:33;98842.66;;;23.11;47.06
9893;BME280;4985;49.092;8.542;2022-09-13T03:39:05;98849.66;;;23.12;47.08
9893;BME280;4985;49.092;8.542;2022-09-13T03:41:40;98848.03;;;23.11;47.13
9893;BME280;4985;49.092;8.542;2022-09-13T03:44:10;98842.66;;;23.11;47.14
9893;BME280;4985;49.092;8.542;2022-09-13T03:46:40;98838.34;;;23.10;47.17
9893;BME280;4985;49.092;8.542;2022-09-13T03:49:11;98828.66;;;23.09;47.21
9893;BME280;4985;49.092;8.542;2022-09-13T03:51:39;98835.66;;;23.10;47.21
9893;BME280;4985;49.092;8.542;2022-09-13T03:54:19;98843.97;;;23.09;47.25
9893;BME280;4985;49.092;8.542;2022-09-13T03:57:10;98825.69;;;23.06;47.28
9893;BME280;4985;49.092;8.542;2022-09-13T03:59:41;98827.84;;;23.09;47.29
9893;BME280;4985;49.092;8.542;2022-09-13T04:02:09;98827.84;;;23.09;47.29
9893;BME280;4985;49.092;8.542;2022-09-13T04:04:38;98826.25;;;23.08;47.33
9893;BME280;4985;49.092;8.542;2022-09-13T04:07:05;98832.41;;;23.08;47.32
9893;BME280;4985;49.092;8.542;2022-09-13T04:09:32;98834.56;;;23.06;47.34
9893;BME280;4985;49.092;8.542;2022-09-13T04:11:59;98844.22;;;23.07;47.34
9893;BME280;4985;49.092;8.542;2022-09-13T04:14:25;98850.66;;;23.06;47.33
9893;BME280;4985;49.092;8.542;2022-09-13T04:16:53;98857.09;;;23.05;47.33
9893;BME280;4985;49.092;8.542;2022-09-13T04:19:19;98859.78;;;23.05;47.29
9893;BME280;4985;49.092;8.542;2022-09-13T04:21:48;98854.41;;;23.05;47.31
9893;BME280;4985;49.092;8.542;2022-09-13T04:24:15;98852.78;;;23.04;47.27
9893;BME280;4985;49.092;8.542;2022-09-13T04:26:42;98858.97;;;23.05;47.25
9893;BME280;4985;49.092;8.542;2022-09-13T04:29:08;98864.59;;;23.03;47.24
9893;BME280;4985;49.092;8.542;2022-09-13T04:31:35;98861.91;;;23.03;47.23
9893;BME280;4985;49.092;8.542;2022-09-13T04:34:02;98865.41;;;23.04;47.20
9893;BME280;4985;49.092;8.542;2022-09-13T04:36:29;98853.88;;;23.03;47.23
9893;BME280;4985;49.092;8.542;2022-09-13T04:38:57;98849.56;;;23.02;47.22
9893;BME280;4985;49.092;8.542;2022-09-13T04:41:25;98867.28;;;23.03;47.22
9893;BME280;4985;49.092;8.542;2022-09-13T04:43:52;98867.53;;;23.02;47.20
9893;BME280;4985;49.092;8.542;2022-09-13T04:46:18;98867.78;;;23.00;47.20
9893;BME280;4985;49.092;8.542;2022-09-13T04:48:47;98866.72;;;23.01;47.21
9893;BME280;4985;49.092;8.542;2022-09-13T04:51:14;98861.84;;;22.98;47.20
9893;BME280;4985;49.092;8.542;2022-09-13T04:53:41;98856.25;;;23.00;47.19
9893;BME280;4985;49.092;8.542;2022-09-13T04:56:09;98867.00;;;23.00;47.15
9893;BME280;4985;49.092;8.542;2022-09-13T04:58:38;98867.78;;;23.00;47.11
9893;BME280;4985;49.092;8.542;2022-09-13T05:01:06;98876.91;;;22.99;47.15
9893;BME280;4985;49.092;8.542;2022-09-13T05:03:34;98877.72;;;23.00;47.11
9893;BME280;4985;49.092;8.542;2022-09-13T05:06:02;98875.28;;;22.98;47.14
9893;BME280;4985;49.092;8.542;2022-09-13T05:08:29;98872.59;;;22.98;47.12
9893;BME280;4985;49.092;8.542;2022-09-13T05:10:55;98880.91;;;22.97;47.16
9893;BME280;4985;49.092;8.542;2022-09-13T05:13:23;98879.03;;;22.97;47.09
9893;BME280;4985;49.092;8.542;2022-09-13T05:15:54;98881.97;;;22.95;47.14
9893;BME280;4985;49.092;8.542;2022-09-13T05:18:20;98898.06;;;22.95;47.13
9893;BME280;4985;49.092;8.542;2022-09-13T05:20:47;98880.34;;;22.94;47.10
9893;BME280;4985;49.092;8.542;2022-09-13T05:23:13;98873.91;;;22.95;47.10
9893;BME280;4985;49.092;8.542;2022-09-13T05:25:40;98877.66;;;22.94;47.08
9893;BME280;4985;49.092;8.542;2022-09-13T05:28:06;98891.09;;;22.94;47.09
9893;BME280;4985;49.092;8.542;2022-09-13T05:30:34;98888.66;;;22.93;47.02
9893;BME280;4985;49.092;8.542;2022-09-13T05:33:01;98882.47;;;22.92;47.07
9893;BME280;4985;49.092;8.542;2022-09-13T05:35:28;98885.97;;;22.93;46.99
9893;BME280;4985;49.092;8.542;2022-09-13T05:37:54;98887.84;;;22.92;47.03
9893;BME280;4985;49.092;8.542;2022-09-13T05:40:21;98884.34;;;22.92;46.98
9893;BME280;4985;49.092;8.542;2022-09-13T05:42:47;98885.41;;;22.91;46.99
9893;BME280;4985;49.092;8.542;2022-09-13T05:45:14;98888.09;;;22.91;47.00
9893;BME280;4985;49.092;8.542;2022-09-13T05:47:42;98894.53;;;22.90;46.94
9893;BME280;4985;49.092;8.542;2022-09-13T05:50:09;98901.53;;;22.91;46.97
9893;BME280;4985;49.092;8.542;2022-09-13T05:52:36;98905.28;;;22.90;46.97
9893;BME280;4985;49.092;8.542;2022-09-13T05:55:03;98899.34;;;22.88;46.96
9893;BME280;4985;49.092;8.542;2022-09-13T05:57:29;98907.94;;;22.90;46.91
9893;BME280;4985;49.092;8.542;2022-09-13T05:59:56;98910.63;;;22.90;46.96
9893;BME280;4985;49.092;8.542;2022-09-13T06:02:22;98909.03;;;22.89;46.98
9893;BME280;4985;49.092;8.542;2022-09-13T06:04:50;98911.69;;;22.89;46.99
9893;BME280;4985;49.092;8.542;2022-09-13T06:07:17;98913.00;;;22.86;47.03
9893;BME280;4985;49.092;8.542;2022-09-13T06:09:43;98919.16;;;22.87;47.08
9893;BME280;4985;49.092;8.542;2022-09-13T06:12:10;98919.97;;;22.87;47.08
9893;BME280;4985;49.092;8.542;2022-09-13T06:14:37;98919.16;;;22.87;47.14
9893;BME280;4985;49.092;8.542;2022-09-13T06:17:03;98916.75;;;22.85;47.16
9893;BME280;4985;49.092;8.542;2022-09-13T06:19:30;98916.50;;;22.87;47.18
9893;BME280;4985;49.092;8.542;2022-09-13T06:21:58;98905.75;;;22.87;47.18
9893;BME280;4985;49.092;8.542;2022-09-13T06:24:24;98897.16;;;22.85;47.24
9893;BME280;4985;49.092;8.542;2022-09-13T06:26:51;98895.28;;;22.85;47.26
9893;BME280;4985;49.092;8.542;2022-09-13T06:29:18;98889.91;;;22.85;47.28
9893;BME280;4985;49.092;8.542;2022-09-13T06:31:45;98894.47;;;22.85;47.30
9893;BME280;4985;49.092;8.542;2022-09-13T06:34:12;98895.53;;;22.84;47.33
9893;BME280;4985;49.092;8.542;2022-09-13T06:36:40;98897.16;;;22.85;47.35
9893;BME280;4985;49.092;8.542;2022-09-13T06:39:08;98887.22;;;22.85;47.37
9893;BME280;4985;49.092;8.542;2022-09-13T06:41:35;98885.59;;;22.84;47.39
9893;BME280;4985;49.092;8.542;2022-09-13T06:44:02;98889.56;;;22.82;47.42
9893;BME280;4985;49.092;8.542;2022-09-13T06:46:31;98885.59;;;22.84;47.46
9893;BME280;4985;49.092;8.542;2022-09-13T06:48:59;98876.75;;;22.84;47.46
9893;BME280;4985;49.092;8.542;2022-09-13T06:51:26;98879.44;;;22.84;47.48
9893;BME280;4985;49.092;8.542;2022-09-13T06:53:54;98874.28;;;22.82;47.50
9893;BME280;4985;49.092;8.542;2022-09-13T06:56:23;98877.78;;;22.83;47.54
9893;BME280;4985;49.092;8.542;2022-09-13T06:58:54;98871.84;;;22.81;47.59
9893;BME280;4985;49.092;8.542;2022-09-13T07:01:22;98871.84;;;22.81;47.59
9893;BME280;4985;49.092;8.542;2022-09-13T07:03:51;98875.34;;;22.81;47.59
9893;BME280;4985;49.092;8.542;2022-09-13T07:06:20;98876.41;;;22.80;47.60
9893;BME280;4985;49.092;8.542;2022-09-13T07:08:48;98869.19;;;22.81;47.58
9893;BME280;4985;49.092;8.542;2022-09-13T07:11:16;98876.16;;;22.82;47.57
9893;BME280;4985;49.092;8.542;2022-09-13T07:13:48;98872.41;;;22.83;47.57
9893;BME280;4985;49.092;8.542;2022-09-13T07:16:15;98877.78;;;22.83;47.55
9893;BME280;4985;49.092;8.542;2022-09-13T07:18:41;98872.41;;;22.83;47.57
9893;BME280;4985;49.092;8.542;2022-09-13T07:21:09;98867.03;;;22.83;47.57
9893;BME280;4985;49.092;8.542;2022-09-13T07:23:38;98860.06;;;22.82;47.57
9893;BME280;4985;49.092;8.542;2022-09-13T07:26:06;98860.06;;;22.82;47.59
9893;BME280;4985;49.092;8.542;2022-09-13T07:28:34;98859.25;;;22.81;47.61
9893;BME280;4985;49.092;8.542;2022-09-13T07:31:11;98858.19;;;22.82;47.62
9893;BME280;4985;49.092;8.542;2022-09-13T07:33:39;98860.06;;;22.82;47.60
9893;BME280;4985;49.092;8.542;2022-09-13T07:36:07;98860.06;;;22.82;47.61
9893;BME280;4985;49.092;8.542;2022-09-13T07:38:36;98857.37;;;22.82;47.60
9893;BME280;4985;49.092;8.542;2022-09-13T07:41:05;98849.31;;;22.82;47.63
9893;BME280;4985;49.092;8.542;2022-09-13T07:43:34;98849.31;;;22.82;47.61
9893;BME280;4985;49.092;8.542;2022-09-13T07:46:02;98851.78;;;22.83;47.58
9893;BME280;4985;49.092;8.542;2022-09-13T07:48:32;98856.31;;;22.83;47.57
9893;BME280;4985;49.092;8.542;2022-09-13T07:51:01;98850.13;;;22.82;47.57
9893;BME280;4985;49.092;8.542;2022-09-13T07:53:28;98860.06;;;22.82;47.62
9893;BME280;4985;49.092;8.542;2022-09-13T07:56:00;98852.25;;;22.80;47.62
9893;BME280;4985;49.092;8.542;2022-09-13T07:58:27;98856.00;;;22.79;47.68
9893;BME280;4985;49.092;8.542;2022-09-13T08:00:57;98849.59;;;22.80;47.65
9893;BME280;4985;49.092;8.542;2022-09-13T08:03:26;98852.25;;;22.80;47.65
9893;BME280;4985;49.092;8.542;2022-09-13T08:05:55;98858.44;;;22.81;47.63
9893;BME280;4985;49.092;8.542;2022-09-13T08:08:22;98848.78;;;22.80;47.65
9893;BME280;4985;49.092;8.542;2022-09-13T08:10:48;98851.47;;;22.80;47.65
9893;BME280;4985;49.092;8.542;2022-09-13T08:13:15;98849.84;;;22.79;47.64
9893;BME280;4985;49.092;8.542;2022-09-13T08:15:42;98852.78;;;22.77;47.66
9893;BME280;4985;49.092;8.542;2022-09-13T08:18:08;98857.34;;;22.77;47.68
9893;BME280;4985;49.092;8.542;2022-09-13T08:20:35;98855.47;;;22.77;47.69
9893;BME280;4985;49.092;8.542;2022-09-13T08:23:04;98851.97;;;22.77;47.71
9893;BME280;4985;49.092;8.542;2022-09-13T08:25:31;98858.97;;;22.78;47.65
9893;BME280;4985;49.092;8.542;2022-09-13T08:27:59;98855.22;;;22.79;47.63
9893;BME280;4985;49.092;8.542;2022-09-13T08:30:25;98866.75;;;22.79;47.62
9893;BME280;4985;49.092;8.542;2022-09-13T08:32:57;98860.56;;;22.79;47.64
9893;BME280;4985;49.092;8.542;2022-09-13T08:35:24;98864.31;;;22.78;47.63
9893;BME280;4985;49.092;8.542;2022-09-13T08:37:51;98853.34;;;22.79;47.63
9893;BME280;4985;49.092;8.542;2022-09-13T08:40:19;98850.91;;;22.78;47.66
9893;BME280;4985;49.092;8.542;2022-09-13T08:42:50;98861.38;;;22.79;47.63
9893;BME280;4985;49.092;8.542;2022-09-13T08:45:19;98860.03;;;22.77;47.63
9893;BME280;4985;49.092;8.542;2022-09-13T08:47:52;98858.69;;;22.79;47.62
9893;BME280;4985;49.092;8.542;2022-09-13T08:50:25;98864.06;;;22.79;47.63
9893;BME280;4985;49.092;8.542;2022-09-13T08:53:09;98861.38;;;22.79;47.67
9893;BME280;4985;49.092;8.542;2022-09-13T08:55:47;98854.94;;;22.80;47.65
9893;BME280;4985;49.092;8.542;2022-09-13T08:58:43;98859.50;;;22.80;47.65
9893;BME280;4985;49.092;8.542;2022-09-13T09:01:22;98859.50;;;22.80;47.65
9893;BME280;4985;49.092;8.542;2022-09-13T09:03:56;98854.12;;;22.80;47.66
9893;BME280;4985;49.092;8.542;2022-09-13T09:06:23;98853.06;;;22.81;47.68
9893;BME280;4985;49.092;8.542;2022-09-13T09:08:53;98844.47;;;22.79;47.69
9893;BME280;4985;49.092;8.542;2022-09-13T09:11:29;98846.59;;;22.77;47.69
9893;BME280;4985;49.092;8.542;2022-09-13T09:14:01;98849.84;;;22.79;47.72
9893;BME280;4985;49.092;8.542;2022-09-13T09:16:35;98859.50;;;22.80;47.71
9893;BME280;4985;49.092;8.542;2022-09-13T09:19:13;98850.37;;;22.81;47.70
9893;BME280;4985;49.092;8.542;2022-09-13T09:21:43;98848.78;;;22.80;47.72
9893;BME280;4985;49.092;8.542;2022-09-13T09:24:18;98846.91;;;22.80;47.70
9893;BME280;4985;49.092;8.542;2022-09-13T09:26:47;98851.47;;;22.80;47.74
9893;BME280;4985;49.092;8.542;2022-09-13T09:29:19;98848.78;;;22.80;47.79
9893;BME280;4985;49.092;8.542;2022-09-13T09:31:55;98846.09;;;22.80;47.85
9893;BME280;4985;49.092;8.542;2022-09-13T09:34:31;98851.47;;;22.80;47.89
9893;BME280;4985;49.092;8.542;2022-09-13T09:37:12;98856.81;;;22.80;47.93
9893;BME280;4985;49.092;8.542;2022-09-13T09:39:41;98855.75;;;22.81;47.97
9893;BME280;4985;49.092;8.542;2022-09-13T09:42:12;98861.12;;;22.81;47.97
9893;BME280;4985;49.092;8.542;2022-09-13T09:44:39;98860.06;;;22.82;47.94
9893;BME280;4985;49.092;8.542;2022-09-13T09:47:12;98869.97;;;22.81;47.92
9893;BME280;4985;49.092;8.542;2022-09-13T09:49:43;98859.69;;;22.73;47.90
9893;BME280;4985;49.092;8.542;2022-09-13T09:52:32;98875.94;;;22.83;47.88
9893;BME280;4985;49.092;8.542;2022-09-13T09:55:10;98869.69;;;22.78;47.85
9893;BME280;4985;49.092;8.542;2022-09-13T09:57:52;98867.03;;;22.83;47.85
9893;BME280;4985;49.092;8.542;2022-09-13T10:00:20;98867.88;;;22.83;47.85
9893;BME280;4985;49.092;8.542;2022-09-13T10:02:48;98859.84;;;22.83;47.84
9893;BME280;4985;49.092;8.542;2022-09-13T10:05:18;98853.06;;;22.81;47.82
9893;BME280;4985;49.092;8.542;2022-09-13T10:07:52;98850.37;;;22.81;47.84
9893;BME280;4985;49.092;8.542;2022-09-13T10:10:24;98855.28;;;22.84;47.87
9893;BME280;4985;49.092;8.542;2022-09-13T10:12:54;98852.59;;;22.84;47.91
9893;BME280;4985;49.092;8.542;2022-09-13T10:15:24;98856.91;;;22.85;47.89
9893;BME280;4985;49.092;8.542;2022-09-13T10:18:03;98855.03;;;22.85;47.94
9893;BME280;4985;49.092;8.542;2022-09-13T10:20:31;98859.56;;;22.85;47.96
9893;BME280;4985;49.092;8.542;2022-09-13T10:23:18;98858.50;;;22.86;47.96
9893;BME280;4985;49.092;8.542;2022-09-13T10:25:57;98853.94;;;22.86;47.97
9893;BME280;4985;49.092;8.542;2022-09-13T10:28:27;98857.44;;;22.87;47.98
9893;BME280;4985;49.092;8.542;2022-09-13T10:30:56;98848.84;;;22.85;47.98
9893;BME280;4985;49.092;8.542;2022-09-13T10:33:27;98850.78;;;22.89;47.97
9893;BME280;4985;49.092;8.542;2022-09-13T10:35:57;98854.28;;;22.90;47.98
9893;BME280;4985;49.092;8.542;2022-09-13T10:38:28;98847.03;;;22.90;47.98
9893;BME280;4985;49.092;8.542;2022-09-13T10:40:57;98844.34;;;22.90;47.94
9893;BME280;4985;49.092;8.542;2022-09-13T10:43:28;98843.28;;;22.91;47.93
9893;BME280;4985;49.092;8.542;2022-09-13T10:45:56;98844.91;;;22.92;47.91
9893;BME280;4985;49.092;8.542;2022-09-13T10:48:23;98844.63;;;22.94;47.88
9893;BME280;4985;49.092;8.542;2022-09-13T10:51:01;98851.06;;;22.93;47.87
9893;BME280;4985;49.092;8.542;2022-09-13T10:53:35;98857.81;;;22.95;47.84
9893;BME280;4985;49.092;8.542;2022-09-13T10:56:02;98859.69;;;22.95;47.84
9893;BME280;4985;49.092;8.542;2022-09-13T10:58:30;98872.84;;;22.97;47.79
9893;BME280;4985;49.092;8.542;2022-09-13T11:07:05;98863.72;;;22.98;47.64
9893;BME280;4985;49.092;8.542;2022-09-13T11:09:38;98875.28;;;22.98;47.64
9893;BME280;4985;49.092;8.542;2022-09-13T11:12:16;98871.56;;;22.99;47.61
9893;BME280;4985;49.092;8.542;2022-09-13T11:14:55;98867.00;;;23.00;47.52
9893;BME280;4985;49.092;8.542;2022-09-13T11:17:38;98872.09;;;23.01;47.50
9893;BME280;4985;49.092;8.542;2022-09-13T11:20:20;98866.72;;;23.01;47.50
9893;BME280;4985;49.092;8.542;2022-09-13T11:23:21;98867.53;;;23.02;47.53
9893;BME280;4985;49.092;8.542;2022-09-13T11:26:05;98861.09;;;23.03;47.44
9893;BME280;4985;49.092;8.542;2022-09-13T11:28:44;98848.22;;;23.05;47.44
9893;BME280;4985;49.092;8.542;2022-09-13T11:31:26;98846.34;;;23.05;47.47
9893;BME280;4985;49.092;8.542;2022-09-13T11:34:13;98847.16;;;23.06;47.48
9893;BME280;4985;49.092;8.542;2022-09-13T11:36:54;98851.47;;;23.07;47.53
9893;BME280;4985;49.092;8.542;2022-09-13T11:39:30;98838.03;;;23.07;47.54
9893;BME280;4985;49.092;8.542;2022-09-13T11:42:07;98835.91;;;23.09;47.58
9893;BME280;4985;49.092;8.542;2022-09-13T11:44:53;98836.72;;;23.09;47.60
9893;BME280;4985;49.092;8.542;2022-09-13T11:47:32;98833.81;;;23.11;47.63
9893;BME280;4985;49.092;8.542;2022-09-13T11:50:12;98831.94;;;23.11;47.65
9893;BME280;4985;49.092;8.542;2022-09-13T11:52:51;98834.63;;;23.11;47.66
9893;BME280;4985;49.092;8.542;2022-09-13T11:55:25;98840.53;;;23.13;47.69
9893;BME280;4985;49.092;8.542;2022-09-13T11:57:56;98835.16;;;23.13;47.72
9893;BME280;4985;49.092;8.542;2022-09-13T12:00:28;98834.09;;;23.14;47.70
9893;BME280;4985;49.092;8.542;2022-09-13T12:03:03;98827.66;;;23.15;47.69
9893;BME280;4985;49.092;8.542;2022-09-13T12:05:38;98818.53;;;23.16;47.66
9893;BME280;4985;49.092;8.542;2022-09-13T12:08:12;98802.44;;;23.16;47.64
9893;BME280;4985;49.092;8.542;2022-09-13T12:10:48;98795.97;;;23.17;47.63
9893;BME280;4985;49.092;8.542;2022-09-13T12:13:19;98787.94;;;23.17;47.62
9893;BME280;4985;49.092;8.542;2022-09-13T12:15:51;98791.16;;;23.19;47.62
9893;BME280;4985;49.092;8.542;2022-09-13T12:18:23;98785.53;;;23.21;47.62
9893;BME280;4985;49.092;8.542;2022-09-13T12:20:53;98788.00;;;23.22;47.63
9893;BME280;4985;49.092;8.542;2022-09-13T12:23:26;98775.38;;;23.23;47.63
9893;BME280;4985;49.092;8.542;2022-09-13T12:25:57;98770.81;;;23.23;47.65
9893;BME280;4985;49.092;8.542;2022-09-13T12:28:29;98760.06;;;23.23;47.70
9893;BME280;4985;49.092;8.542;2022-09-13T12:31:04;98765.72;;;23.27;47.66
9893;BME280;4985;49.092;8.542;2022-09-13T12:33:37;98756.59;;;23.28;47.65
9893;BME280;4985;49.092;8.542;2022-09-13T12:39:14;98764.38;;;23.30;47.62
9893;BME280;4985;49.092;8.542;2022-09-13T12:41:59;98755.25;;;23.31;47.60
9893;BME280;4985;49.092;8.542;2022-09-13T12:44:40;98753.13;;;23.33;47.57
9893;BME280;4985;49.092;8.542;2022-09-13T12:47:37;98741.34;;;23.34;47.56
9893;BME280;4985;49.092;8.542;2022-09-13T12:50:21;98725.72;;;23.31;47.59
9893;BME280;4985;49.092;8.542;2022-09-13T12:53:02;98731.13;;;23.36;47.59
9893;BME280;4985;49.092;8.542;2022-09-13T12:55:47;98735.44;;;23.37;47.62
9893;BME280;4985;49.092;8.542;2022-09-13T12:58:39;98740.53;;;23.38;47.65
9893;BME280;4985;49.092;8.542;2022-09-13T13:01:13;98735.97;;;23.39;47.62
9893;BME280;4985;49.092;8.542;2022-09-13T13:03:45;98728.47;;;23.41;47.62
9893;BME280;4985;49.092;8.542;2022-09-13T13:06:26;98738.94;;;23.42;47.60
9893;BME280;4985;49.092;8.542;2022-09-13T13:08:56;98738.69;;;23.44;47.59
9893;BME280;4985;49.092;8.542;2022-09-13T13:11:25;98725.03;;;23.45;47.60
9893;BME280;4985;49.092;8.542;2022-09-13T13:13:55;98727.44;;;23.47;47.60
9893;BME280;4985;49.092;8.542;2022-09-13T13:16:26;98722.88;;;23.47;47.61
9893;BME280;4985;49.092;8.542;2022-09-13T13:18:53;98720.72;;;23.49;47.59
9893;BME280;4985;49.092;8.542;2022-09-13T13:21:28;98709.72;;;23.51;47.59
9893;BME280;4985;49.092;8.542;2022-09-13T13:27:00;98706.50;;;23.54;47.59
9893;BME280;4985;49.092;8.542;2022-09-13T13:29:27;98700.88;;;23.56;47.58
9893;BME280;4985;49.092;8.542;2022-09-13T13:32:09;98700.63;;;23.57;47.58
9893;BME280;4985;49.092;8.542;2022-09-13T13:34:42;98699.31;;;23.60;47.55
9893;BME280;4985;49.092;8.542;2022-09-13T13:37:27;98700.13;;;23.60;47.54
9893;BME280;4985;49.092;8.542;2022-09-13T13:40:21;98698.00;;;23.62;47.53
9893;BME280;4985;49.092;8.542;2022-09-13T13:42:49;98696.91;;;23.63;47.54
9893;BME280;4985;49.092;8.542;2022-09-13T13:45:25;98692.63;;;23.62;47.51
9893;BME280;4985;49.092;8.542;2022-09-13T13:48:05;98686.97;;;23.64;47.55
9893;BME280;4985;49.092;8.542;2022-09-13T13:50:32;98696.38;;;23.66;47.53
9893;BME280;4985;49.092;8.542;2022-09-13T13:53:19;98693.47;;;23.68;47.51
9893;BME280;4985;49.092;8.542;2022-09-13T13:55:47;98693.19;;;23.69;47.48
9893;BME280;4985;49.092;8.542;2022-09-13T13:58:43;98694.81;;;23.70;47.45
9893;BME280;4985;49.092;8.542;2022-09-13T14:01:16;98695.63;;;23.71;47.40
9893;BME280;4985;49.092;8.542;2022-09-13T14:04:06;98679.22;;;23.72;47.40